Participated 7 times
Between 1986 and 1995
Carlo Bomans, Belgium
Tour de France 2026 starts from Barcelona, Spain in

Stats and Facts from
Tour de France.

2026   2025   2024   2023  2022  2021  2020  2019   2018  2017   2016   2015  2014  2013   2012   2011  2010   2009   2008   2007   2006   2005   2004   2003   2002   2001   2000   1999   1998   1997  1996   1995   1994   1993   1992  1991   1990   1989   1988   1987   1986   1985   1984   1983  1982  1981   1980   1979  1978  1977   1976  1975  1974  1973   1972   1971   1970  1969   1968   1967   1966   1965  1964  1963   1962   1961   1960   1959   1958   1957  1956   1955   1954   1953   1952  1951  1950  1949   1948  1947  1939   1938   1937   1936   1935   1934   1933  1932   1931   1930  1929   1928   1927   1926  1925  1924  1923   1922   1921   1920   1919  1914   1913   1912   1911   1910  1909   1908   1907   1906  1905  1904   1903 

Tourstats
Sitemap

After stage 21 - 2025:
 16451 starters.
  5463 different riders.
  689 teams.
  2398 stages.
  470 restdays.
  466506.50 km.
  5925 abandoned riders.

Click map for 1991 route.
Facts from Tour de France 1991
  |   Stages.  |   Stage winners.  |   Days in jerseys.  |   Teams.  |   All riders.  |   All riders by age.  |   All riders from.  |  

  |   Rookies.  |   Withdrawls.  |   Average speed.  |   GC.  |   Polka  |   Green  |   White  |   Summits. (In tour)  |   Miscellaneous.  |  

Stage 12 on July 18th. 1991
Pick a stage:  Pro  1  2  3  4  5  6  7  8  9  10  11  12  13  14  15  16  17  18  19  20  21  22  

After stage 12:    Luc Leblanc  
  PauJaca | Dist: 192.00km. | Winner: Charly Mottet

Podium
3  Côte de Lasseube Thierry Claveyrolatafter10.00 km.

1  Col de Soudet Pascal Richardafter83.00 km.

2  Col d'Ichere Pascal Richardafter120.00 km.

1  Puerto de Somport Luc Leblancafter160.00 km.


Average speed for all riders in stage:  34,006 km./hr.

1
 Charly Mottet  R.M.O.-Mavic-Liberia05h 15' 52"=36,471  km/h

2
 Pascal Richard  Helvetia05h 15' 52"=36,471  km/h

3
 Luc Leblanc  Castorama05h 15' 54"+  00:00:02 =36,467  km/h

4  Maurizio Fondriest  Panasonic-Sportlife05h 17' 58"+  00:02:06 =36,230  km/h

5  Andy Hampsten  Motorola05h 17' 58"+  00:02:06 =36,230  km/h

6  Eduardo Chozas  O.N.C.E.05h 22' 13"+  00:06:21 =35,752  km/h

7  Miguel Indurain  Banesto05h 22' 41"+  00:06:49 =35,701  km/h

8  Frédéric Vichot  Castorama05h 22' 47"+  00:06:55 =35,690  km/h

9  Claudio Chiappucci  Carrera Jeans05h 22' 47"+  00:06:55 =35,690  km/h

10  Jan Nevens  Lotto-Superclub-MBK05h 22' 47"+  00:06:55 =35,690  km/h

11  Gérard Rué  Helvetia05h 22' 47"+  00:06:55 =35,690  km/h

12  Laurent Fignon  Castorama05h 22' 49"+  00:06:57 =35,686  km/h

13  Luis Herrera  Ryalcao-Postobon05h 22' 49"+  00:06:57 =35,686  km/h

14  Éric Caritoux  R.M.O.-Mavic-Liberia05h 22' 49"+  00:06:57 =35,686  km/h

15  Henry Cárdenas  Ryalcao-Postobon05h 22' 49"+  00:06:57 =35,686  km/h

16  Fabrice Philipot  Banesto05h 22' 49"+  00:06:57 =35,686  km/h

17  Óscar Vargas  Ryalcao-Postobon05h 22' 49"+  00:06:57 =35,686  km/h

18  Gert-Jan Theunisse  TVM-Sanyo05h 22' 49"+  00:06:57 =35,686  km/h

19  Alberto Camargo  Ryalcao-Postobon05h 22' 49"+  00:06:57 =35,686  km/h

20  Gilles Delion  Helvetia05h 22' 49"+  00:06:57 =35,686  km/h

21  Denis Roux  Toshiba05h 22' 49"+  00:06:57 =35,686  km/h

22  Uwe Ampler  Histor-Sigma05h 22' 49"+  00:06:57 =35,686  km/h

23  Melchor Mauri  O.N.C.E.05h 22' 49"+  00:06:57 =35,686  km/h

24  Greg LeMond  Z05h 22' 49"+  00:06:57 =35,686  km/h

25  Jean-François Bernard  Banesto05h 22' 49"+  00:06:57 =35,686  km/h

26  Reynel Montoya  Ryalcao-Postobon05h 22' 49"+  00:06:57 =35,686  km/h

27  Pedro Delgado  Banesto05h 22' 49"+  00:06:57 =35,686  km/h

28  Abelardo Rondón  Banesto05h 22' 49"+  00:06:57 =35,686  km/h

29  Javier Murguialday  Amaya Seguros05h 22' 49"+  00:06:57 =35,686  km/h

30  Marino Lejarreta  O.N.C.E.05h 22' 49"+  00:06:57 =35,686  km/h

31  Roberto Conti  Ariostea05h 22' 49"+  00:06:57 =35,686  km/h

32  Gianni Bugno  Gatorade-Chateau d'Ax05h 22' 49"+  00:06:57 =35,686  km/h

33  Miguel Angel Martinez  O.N.C.E.05h 22' 49"+  00:06:57 =35,686  km/h

34  Bruno Cornillet  Z05h 30' 29"+  00:14:37 =34,858  km/h

35  Jerôme Simon  Z05h 31' 03"+  00:15:11 =34,798  km/h

36  Javier Lukin  Banesto05h 31' 03"+  00:15:11 =34,798  km/h

37  Gilbert Duclos-Lassalle  Z05h 32' 20"+  00:16:28 =34,664  km/h

38  Laurent Pillon  Tonton Tapis-Corona05h 35' 05"+  00:19:13 =34,380  km/h

39  Pascal Simon  Castorama05h 35' 05"+  00:19:13 =34,380  km/h

40  Mauro Gianetti  Helvetia05h 35' 05"+  00:19:13 =34,380  km/h

41  Eric Van Lancker  Panasonic-Sportlife05h 35' 05"+  00:19:13 =34,380  km/h

42  Johnny Weltz  O.N.C.E.05h 35' 05"+  00:19:13 =34,380  km/h

43  Guy Nulens  Panasonic-Sportlife05h 35' 05"+  00:19:13 =34,380  km/h

44  Marc Sergeant  Panasonic-Sportlife05h 35' 05"+  00:19:13 =34,380  km/h

45  Viatcheslav Ekimov  Panasonic-Sportlife05h 35' 05"+  00:19:13 =34,380  km/h

46  Philippe Louviot  Toshiba05h 35' 05"+  00:19:13 =34,380  km/h

47  Phil Anderson  Motorola05h 35' 05"+  00:19:13 =34,380  km/h

48  Ronan Pensec  Amaya Seguros05h 35' 05"+  00:19:13 =34,380  km/h

49  Patrice Esnault  Amaya Seguros05h 35' 05"+  00:19:13 =34,380  km/h

50  Gerrit De Vries  Buckler05h 35' 05"+  00:19:13 =34,380  km/h

51  Dirk De Wolf  Tonton Tapis-Corona05h 35' 05"+  00:19:13 =34,380  km/h

52  Thierry Bourguignon  Toshiba05h 35' 05"+  00:19:13 =34,380  km/h

53  Álvaro Mejía  Ryalcao-Postobon05h 35' 05"+  00:19:13 =34,380  km/h

54  Gerardo Moncada  Ryalcao-Postobon05h 35' 05"+  00:19:13 =34,380  km/h

55  Marco Giovannetti  Gatorade-Chateau d'Ax05h 35' 05"+  00:19:13 =34,380  km/h

56  Francisco Espinosa  Clas-Cajastur05h 35' 05"+  00:19:13 =34,380  km/h

57  Iñaki Gastón  Clas-Cajastur05h 35' 05"+  00:19:13 =34,380  km/h

58  Urs Zimmermann  Motorola05h 35' 05"+  00:19:13 =34,380  km/h

59  Herminio Diaz Zabala  O.N.C.E.05h 35' 05"+  00:19:13 =34,380  km/h

60  Guido Winterberg  Helvetia05h 35' 05"+  00:19:13 =34,380  km/h

61  Anselmo Fuerte  O.N.C.E.05h 35' 05"+  00:19:13 =34,380  km/h

62  Yvon Madiot  R.M.O.-Mavic-Liberia05h 35' 05"+  00:19:13 =34,380  km/h

63  Éric Boyer  Z05h 35' 05"+  00:19:13 =34,380  km/h

64  Stephen Hodge  O.N.C.E.05h 35' 05"+  00:19:13 =34,380  km/h

65  Thierry Claveyrolat  R.M.O.-Mavic-Liberia05h 35' 05"+  00:19:13 =34,380  km/h

66  Robert Millar  Z05h 35' 05"+  00:19:13 =34,380  km/h

67  Bruno Cenghialta  Ariostea05h 38' 43"+  00:22:51 =34,011  km/h

68  Jure Pavlič  Carrera Jeans05h 38' 43"+  00:22:51 =34,011  km/h

69  Jean-Claude Bagot  Castorama05h 38' 43"+  00:22:51 =34,011  km/h

70  Jean-Claude Colotti  Tonton Tapis-Corona05h 38' 43"+  00:22:51 =34,011  km/h

71  Marc van Orsouw  Panasonic-Sportlife05h 38' 43"+  00:22:51 =34,011  km/h

72  Dominique Arnaud  Banesto05h 38' 43"+  00:22:51 =34,011  km/h

73  Alessandro Giannelli  Carrera Jeans05h 38' 43"+  00:22:51 =34,011  km/h

74  Dominik Krieger  Helvetia05h 38' 43"+  00:22:51 =34,011  km/h

75  Dag Otto Lauritzen  Motorola05h 38' 43"+  00:22:51 =34,011  km/h

76  Per Pedersen  Amaya Seguros05h 38' 43"+  00:22:51 =34,011  km/h

77  Roland Le Clerc  Amaya Seguros05h 38' 43"+  00:22:51 =34,011  km/h

78  Didier Virvaleix  Histor-Sigma05h 38' 43"+  00:22:51 =34,011  km/h

79  Olaf Lurvik  Toshiba05h 38' 43"+  00:22:51 =34,011  km/h

80  Moreno Argentin  Ariostea05h 38' 43"+  00:22:51 =34,011  km/h

81  Djamolidine Abduzhaparov  Carrera Jeans05h 38' 43"+  00:22:51 =34,011  km/h

82  Enrico Zaina  Carrera Jeans05h 38' 43"+  00:22:51 =34,011  km/h

83  Francisco Mauleón  Clas-Cajastur05h 38' 43"+  00:22:51 =34,011  km/h

84  Benjamin Van Itterbeeck  Histor-Sigma05h 38' 43"+  00:22:51 =34,011  km/h

85  Jesús Montoya  Amaya Seguros05h 38' 43"+  00:22:51 =34,011  km/h

86  Fernando Quevedo  Amaya Seguros05h 38' 43"+  00:22:51 =34,011  km/h

87  Marc Madiot  R.M.O.-Mavic-Liberia05h 38' 43"+  00:22:51 =34,011  km/h

88  Pascal Lino  R.M.O.-Mavic-Liberia05h 38' 43"+  00:22:51 =34,011  km/h

89  Patrick Jacobs  Tonton Tapis-Corona05h 38' 43"+  00:22:51 =34,011  km/h

90  Sean Yates  Motorola05h 38' 43"+  00:22:51 =34,011  km/h

91  Mauro Ribeiro  R.M.O.-Mavic-Liberia05h 38' 43"+  00:22:51 =34,011  km/h

92  Manuel Dominguez  Clas-Cajastur05h 43' 04"+  00:27:12 =33,579  km/h

93  Pello Ruiz Cabestany  Clas-Cajastur05h 43' 04"+  00:27:12 =33,579  km/h

94  Steven Rooks  Buckler05h 43' 04"+  00:27:12 =33,579  km/h

95  Sergei Uslamin  TVM-Sanyo05h 43' 04"+  00:27:12 =33,579  km/h

96  Michel Vermote  R.M.O.-Mavic-Liberia05h 45' 18"+  00:29:26 =33,362  km/h

97  Thomas Wegmüller  Weinmann-Eddy Merckx05h 45' 18"+  00:29:26 =33,362  km/h

98  Arsenio Chaparro  Ryalcao-Postobon05h 45' 18"+  00:29:26 =33,362  km/h

99  Thierry Marie  Castorama05h 45' 18"+  00:29:26 =33,362  km/h

100  Michel Dernies  Weinmann-Eddy Merckx05h 45' 18"+  00:29:26 =33,362  km/h

101  Thierry Laurent  R.M.O.-Mavic-Liberia05h 45' 18"+  00:29:26 =33,362  km/h

102  Peter De Clercq  Lotto-Superclub-MBK05h 45' 18"+  00:29:26 =33,362  km/h

103  Jelle Nijdam  Buckler05h 45' 18"+  00:29:26 =33,362  km/h

104  Guiseppe Calcaterra  Gatorade-Chateau d'Ax05h 45' 18"+  00:29:26 =33,362  km/h

105  Philippe Casado  Z05h 45' 18"+  00:29:26 =33,362  km/h

106  Peter Stevenhaagen  Helvetia05h 45' 18"+  00:29:26 =33,362  km/h

107  Roberto Gusmeroli  Gatorade-Chateau d'Ax05h 45' 18"+  00:29:26 =33,362  km/h

108  Christophe Lavainne  Castorama05h 45' 18"+  00:29:26 =33,362  km/h

109  Vladimir Pulnikov  Carrera Jeans05h 45' 18"+  00:29:26 =33,362  km/h

110  Dominique Arnould  Castorama05h 45' 18"+  00:29:26 =33,362  km/h

111  Carlos Jaramillo  Ryalcao-Postobon05h 45' 18"+  00:29:26 =33,362  km/h

112  Erich Mächler  Carrera Jeans05h 45' 18"+  00:29:26 =33,362  km/h

113  Jesus Rodriguez Magro  Banesto05h 45' 18"+  00:29:26 =33,362  km/h

114  Javier Duch  Clas-Cajastur05h 45' 18"+  00:29:26 =33,362  km/h

115  Rik  Van Slycke  Lotto-Superclub-MBK05h 45' 18"+  00:29:26 =33,362  km/h

116  Guido Bontempi  Carrera Jeans05h 45' 18"+  00:29:26 =33,362  km/h

117  Giancarlo Perini  Carrera Jeans05h 45' 18"+  00:29:26 =33,362  km/h

118  François Lemarchand  Z05h 45' 18"+  00:29:26 =33,362  km/h

119  Thomas Barth  TVM-Sanyo05h 45' 18"+  00:29:26 =33,362  km/h

120  Vasily Zhdanov  TVM-Sanyo05h 45' 18"+  00:29:26 =33,362  km/h

121  Wilfried Peeters  Histor-Sigma05h 45' 18"+  00:29:26 =33,362  km/h

122  Atle Kvå lsvoll  Z05h 45' 18"+  00:29:26 =33,362  km/h

123  Søren Lilholt  Histor-Sigma05h 45' 18"+  00:29:26 =33,362  km/h

124  Pascal Lance  Toshiba05h 45' 18"+  00:29:26 =33,362  km/h

125  Alberto Leanizbarrutia  Clas-Cajastur05h 45' 18"+  00:29:26 =33,362  km/h

126  Bjarne Riis  Castorama05h 45' 18"+  00:29:26 =33,362  km/h

127  Sammie Moreels  Lotto-Superclub-MBK05h 45' 18"+  00:29:26 =33,362  km/h

128  Camillo Passera  Gatorade-Chateau d'Ax05h 45' 18"+  00:29:26 =33,362  km/h

129  Eric Vanderaerden  Buckler05h 45' 18"+  00:29:26 =33,362  km/h

130  Toine  Poels  Buckler05h 45' 18"+  00:29:26 =33,362  km/h

131  Olaf Ludwig  Panasonic-Sportlife05h 45' 18"+  00:29:26 =33,362  km/h

132  Rolf Gölz  Ariostea05h 45' 18"+  00:29:26 =33,362  km/h

133  Jan Goessens  Weinmann-Eddy Merckx05h 45' 18"+  00:29:26 =33,362  km/h

134  Mauro-Antonio Santaromita  Gatorade-Chateau d'Ax05h 45' 18"+  00:29:26 =33,362  km/h

135  Johan Bruyneel  Lotto-Superclub-MBK05h 45' 18"+  00:29:26 =33,362  km/h

136  Rudy Dhaenens  Panasonic-Sportlife05h 45' 18"+  00:29:26 =33,362  km/h

137  Edwig Van Hooydonck  Buckler05h 45' 18"+  00:29:26 =33,362  km/h

138  Ron Kiefel  Motorola05h 45' 18"+  00:29:26 =33,362  km/h

139  Francis Moreau  Tonton Tapis-Corona05h 45' 18"+  00:29:26 =33,362  km/h

140  Carlo Bomans  Weinmann-Eddy Merckx05h 45' 18"+  00:29:26 =33,362  km/h

141  Jan Schur  Gatorade-Chateau d'Ax05h 45' 18"+  00:29:26 =33,362  km/h

142  Gerrit Solleveld  Buckler05h 45' 18"+  00:29:26 =33,362  km/h

143  Etienne De Wilde  Histor-Sigma05h 45' 18"+  00:29:26 =33,362  km/h

144  Valerio Tebaldi  Gatorade-Chateau d'Ax05h 45' 18"+  00:29:26 =33,362  km/h

145  Nico  Emonds  Clas-Cajastur05h 45' 18"+  00:29:26 =33,362  km/h

146  Dimitri Zhdanov  Panasonic-Sportlife05h 45' 18"+  00:29:26 =33,362  km/h

147  Stefano Zanatta  Gatorade-Chateau d'Ax05h 45' 18"+  00:29:26 =33,362  km/h

148  Alfred Achermann  Weinmann-Eddy Merckx05h 45' 18"+  00:29:26 =33,362  km/h

149  Davide Cassani  Ariostea05h 45' 18"+  00:29:26 =33,362  km/h

150  Andreas Kappes  Histor-Sigma05h 45' 18"+  00:29:26 =33,362  km/h

151  Christian Chaubet  Toshiba05h 45' 18"+  00:29:26 =33,362  km/h

152  Andrew Bishop  Motorola05h 45' 18"+  00:29:26 =33,362  km/h

153  Steve Bauer  Motorola05h 45' 18"+  00:29:26 =33,362  km/h

154  Laurent Jalabert  Toshiba05h 45' 18"+  00:29:26 =33,362  km/h

155  José Luis Villanueva  O.N.C.E.05h 45' 18"+  00:29:26 =33,362  km/h

156  Alberto Elli  Ariostea05h 45' 18"+  00:29:26 =33,362  km/h

157  Henri Abadie  Toshiba05h 45' 18"+  00:29:26 =33,362  km/h

158  Rudy Verdonck  Weinmann-Eddy Merckx05h 45' 18"+  00:29:26 =33,362  km/h

159  Dimitri Konychev  TVM-Sanyo05h 45' 18"+  00:29:26 =33,362  km/h

160  Werner Stutz  Weinmann-Eddy Merckx05h 47' 16"+  00:31:24 =33,173  km/h

161  Brian Holm  Histor-Sigma05h 47' 16"+  00:31:24 =33,173  km/h

162  Rolf Järmann  Weinmann-Eddy Merckx05h 47' 16"+  00:31:24 =33,173  km/h

163  Jan Siemons  TVM-Sanyo05h 47' 16"+  00:31:24 =33,173  km/h

164  Enrique Guerrikagoitia  Amaya Seguros05h 47' 41"+  00:31:49 =33,134  km/h

165  Henri Manders  Helvetia05h 47' 41"+  00:31:49 =33,134  km/h

166  Eddy Schurer  TVM-Sanyo05h 47' 41"+  00:31:49 =33,134  km/h

167  Marino Alonso  Banesto05h 47' 41"+  00:31:49 =33,134  km/h

168  Remig Stumpf  Histor-Sigma05h 47' 41"+  00:31:49 =33,134  km/h

169  Hendrik Redant  Lotto-Superclub-MBK05h 47' 41"+  00:31:49 =33,134  km/h

170  Ludwig Willems  Weinmann-Eddy Merckx05h 51' 01"+  00:35:09 =32,819  km/h

171  José-Manuel Oliveira  Clas-Cajastur05h 51' 01"+  00:35:09 =32,819  km/h

172  John Carlsen  Tonton Tapis-Corona05h 51' 01"+  00:35:09 =32,819  km/h

173  Atle Pedersen  Tonton Tapis-Corona05h 51' 01"+  00:35:09 =32,819  km/h

174  Marco Lietti  Ariostea05h 51' 01"+  00:35:09 =32,819  km/h

175  Laurence Roche  Tonton Tapis-Corona05h 51' 27"+  00:35:35 =32,778  km/h

176  Rob Harmeling  TVM-Sanyo05h 52' 53"+  00:37:01 =32,645  km/h

177  Frank Van Den Abeele  Lotto-Superclub-MBK05h 52' 53"+  00:37:01 =32,645  km/h

178  Wiebren Veenstra  Buckler05h 56' 09"+  00:40:17 =32,346  km/h

179  Frans Maassen  Buckler05h 56' 09"+  00:40:17 =32,346  km/h

180  Patrick Verschueren  Lotto-Superclub-MBK05h 56' 19"+  00:40:27 =32,331  km/h

181  Johan Museeuw  Lotto-Superclub-MBK05h 56' 19"+  00:40:27 =32,331  km/h


Withdrawls: 4
 RiderTeamReason
127   Massimiliano Lelli AriosteaDid not finish
148   Jesper Skibby TVM-SanyoDid not finish
75   Michael Carter MotorolaExceeded time limit
102   Serge Demierre HelvetiaExceeded time limit
Todays birthdays.

1888 • Giuseppe Contesini
1911 • Edmond Pages
1935 • Eddy Pauwels
1940 • Julien Haelterman
1958 • Luc Colijn
1962 • Jean-François Bernard
1984 • Yann Huguet
1993 • Owain Doull

 

Optimized for Chrome - Edge
and Opera browsers.